sensor_id;sensor_type;location;lat;lon;timestamp;temperature;humidity
51811;DHT22;52468;40.116;18.296;2023-04-24T00:00:08;14.90;75.50
51811;DHT22;52468;40.116;18.296;2023-04-24T00:02:42;14.90;75.50
51811;DHT22;52468;40.116;18.296;2023-04-24T00:05:14;14.90;75.70
51811;DHT22;52468;40.116;18.296;2023-04-24T00:07:44;14.90;75.90
51811;DHT22;52468;40.116;18.296;2023-04-24T00:10:12;14.90;76.10
51811;DHT22;52468;40.116;18.296;2023-04-24T00:12:40;14.90;76.30
51811;DHT22;52468;40.116;18.296;2023-04-24T00:15:08;14.90;76.60
51811;DHT22;52468;40.116;18.296;2023-04-24T00:17:36;14.80;76.70
51811;DHT22;52468;40.116;18.296;2023-04-24T00:20:05;14.90;76.90
51811;DHT22;52468;40.116;18.296;2023-04-24T00:22:34;14.90;77.00
51811;DHT22;52468;40.116;18.296;2023-04-24T00:25:02;14.80;77.40
51811;DHT22;52468;40.116;18.296;2023-04-24T00:27:30;14.80;77.40
51811;DHT22;52468;40.116;18.296;2023-04-24T00:29:58;14.80;77.40
51811;DHT22;52468;40.116;18.296;2023-04-24T00:32:26;14.80;77.40
51811;DHT22;52468;40.116;18.296;2023-04-24T00:34:55;14.90;77.70
51811;DHT22;52468;40.116;18.296;2023-04-24T00:37:23;14.80;78.00
51811;DHT22;52468;40.116;18.296;2023-04-24T00:39:50;14.80;78.00
51811;DHT22;52468;40.116;18.296;2023-04-24T00:42:18;14.80;78.10
51811;DHT22;52468;40.116;18.296;2023-04-24T00:44:46;14.80;78.30
51811;DHT22;52468;40.116;18.296;2023-04-24T00:47:15;14.80;78.60
51811;DHT22;52468;40.116;18.296;2023-04-24T00:49:44;14.80;78.90
51811;DHT22;52468;40.116;18.296;2023-04-24T00:52:11;14.80;79.00
51811;DHT22;52468;40.116;18.296;2023-04-24T00:54:39;14.80;79.20
51811;DHT22;52468;40.116;18.296;2023-04-24T00:57:08;14.80;79.40
51811;DHT22;52468;40.116;18.296;2023-04-24T00:59:35;14.90;79.60
51811;DHT22;52468;40.116;18.296;2023-04-24T01:02:04;14.80;79.80
51811;DHT22;52468;40.116;18.296;2023-04-24T01:04:32;14.80;80.00
51811;DHT22;52468;40.116;18.296;2023-04-24T01:07:00;14.90;80.20
51811;DHT22;52468;40.116;18.296;2023-04-24T01:09:28;14.90;80.30
51811;DHT22;52468;40.116;18.296;2023-04-24T01:11:58;15.00;80.60
51811;DHT22;52468;40.116;18.296;2023-04-24T01:14:25;15.00;80.80
51811;DHT22;52468;40.116;18.296;2023-04-24T01:16:53;14.90;81.20
51811;DHT22;52468;40.116;18.296;2023-04-24T01:19:21;15.00;81.20
51811;DHT22;52468;40.116;18.296;2023-04-24T01:21:51;15.00;81.30
51811;DHT22;52468;40.116;18.296;2023-04-24T01:24:20;15.00;81.50
51811;DHT22;52468;40.116;18.296;2023-04-24T01:26:48;15.00;81.70
51811;DHT22;52468;40.116;18.296;2023-04-24T01:29:16;15.10;81.70
51811;DHT22;52468;40.116;18.296;2023-04-24T01:31:44;15.10;81.90
51811;DHT22;52468;40.116;18.296;2023-04-24T01:34:12;15.10;82.30
51811;DHT22;52468;40.116;18.296;2023-04-24T01:36:41;15.10;82.40
51811;DHT22;52468;40.116;18.296;2023-04-24T01:39:10;15.20;82.40
51811;DHT22;52468;40.116;18.296;2023-04-24T01:41:38;15.30;82.40
51811;DHT22;52468;40.116;18.296;2023-04-24T01:44:06;15.30;82.60
51811;DHT22;52468;40.116;18.296;2023-04-24T01:46:35;15.30;82.90
51811;DHT22;52468;40.116;18.296;2023-04-24T01:49:04;15.40;82.90
51811;DHT22;52468;40.116;18.296;2023-04-24T01:51:32;15.40;82.90
51811;DHT22;52468;40.116;18.296;2023-04-24T01:53:59;15.40;83.00
51811;DHT22;52468;40.116;18.296;2023-04-24T01:56:33;15.40;83.20
51811;DHT22;52468;40.116;18.296;2023-04-24T01:59:03;15.50;83.10
51811;DHT22;52468;40.116;18.296;2023-04-24T02:01:35;15.40;83.20
51811;DHT22;52468;40.116;18.296;2023-04-24T02:04:07;15.50;83.20
51811;DHT22;52468;40.116;18.296;2023-04-24T02:06:35;15.50;83.20
51811;DHT22;52468;40.116;18.296;2023-04-24T02:09:03;15.40;83.40
51811;DHT22;52468;40.116;18.296;2023-04-24T02:11:31;15.40;83.40
51811;DHT22;52468;40.116;18.296;2023-04-24T02:13:59;15.40;83.30
51811;DHT22;52468;40.116;18.296;2023-04-24T02:16:28;15.50;83.40
51811;DHT22;52468;40.116;18.296;2023-04-24T02:18:59;15.50;83.40
51811;DHT22;52468;40.116;18.296;2023-04-24T02:21:27;15.50;83.50
51811;DHT22;52468;40.116;18.296;2023-04-24T02:23:55;15.40;83.50
51811;DHT22;52468;40.116;18.296;2023-04-24T02:26:23;15.50;83.50
51811;DHT22;52468;40.116;18.296;2023-04-24T02:28:51;15.50;83.50
51811;DHT22;52468;40.116;18.296;2023-04-24T02:31:20;15.50;83.60
51811;DHT22;52468;40.116;18.296;2023-04-24T02:33:48;15.50;83.60
51811;DHT22;52468;40.116;18.296;2023-04-24T02:36:16;15.50;83.60
51811;DHT22;52468;40.116;18.296;2023-04-24T02:38:44;15.50;83.70
51811;DHT22;52468;40.116;18.296;2023-04-24T02:41:13;15.50;83.60
51811;DHT22;52468;40.116;18.296;2023-04-24T02:43:42;15.50;83.60
51811;DHT22;52468;40.116;18.296;2023-04-24T02:46:10;15.50;83.70
51811;DHT22;52468;40.116;18.296;2023-04-24T02:48:38;15.50;83.80
51811;DHT22;52468;40.116;18.296;2023-04-24T02:51:06;15.50;83.70
51811;DHT22;52468;40.116;18.296;2023-04-24T02:53:34;15.50;83.80
51811;DHT22;52468;40.116;18.296;2023-04-24T02:56:02;15.50;83.70
51811;DHT22;52468;40.116;18.296;2023-04-24T02:58:30;15.50;83.70
51811;DHT22;52468;40.116;18.296;2023-04-24T03:00:58;15.50;83.80
51811;DHT22;52468;40.116;18.296;2023-04-24T03:03:26;15.50;83.80
51811;DHT22;52468;40.116;18.296;2023-04-24T03:05:53;15.50;83.80
51811;DHT22;52468;40.116;18.296;2023-04-24T03:08:23;15.40;83.90
51811;DHT22;52468;40.116;18.296;2023-04-24T03:10:51;15.40;84.00
51811;DHT22;52468;40.116;18.296;2023-04-24T03:13:18;15.40;84.00
51811;DHT22;52468;40.116;18.296;2023-04-24T03:15:46;15.40;84.20
51811;DHT22;52468;40.116;18.296;2023-04-24T03:18:14;15.40;84.20
51811;DHT22;52468;40.116;18.296;2023-04-24T03:20:45;15.40;84.00
51811;DHT22;52468;40.116;18.296;2023-04-24T03:23:14;15.50;84.10
51811;DHT22;52468;40.116;18.296;2023-04-24T03:25:42;15.40;84.10
51811;DHT22;52468;40.116;18.296;2023-04-24T03:28:11;15.50;84.20
51811;DHT22;52468;40.116;18.296;2023-04-24T03:30:45;15.50;84.40
51811;DHT22;52468;40.116;18.296;2023-04-24T03:33:14;15.50;84.50
51811;DHT22;52468;40.116;18.296;2023-04-24T03:35:52;15.50;84.50
51811;DHT22;52468;40.116;18.296;2023-04-24T03:38:20;15.50;84.40
51811;DHT22;52468;40.116;18.296;2023-04-24T03:40:58;15.50;84.50
51811;DHT22;52468;40.116;18.296;2023-04-24T03:43:38;15.50;84.60
51811;DHT22;52468;40.116;18.296;2023-04-24T03:46:07;15.50;84.50
51811;DHT22;52468;40.116;18.296;2023-04-24T03:48:41;15.60;84.50
51811;DHT22;52468;40.116;18.296;2023-04-24T03:51:10;15.60;84.50
51811;DHT22;52468;40.116;18.296;2023-04-24T03:53:42;15.60;84.60
51811;DHT22;52468;40.116;18.296;2023-04-24T03:56:12;15.60;84.70
51811;DHT22;52468;40.116;18.296;2023-04-24T03:58:41;15.60;84.80
51811;DHT22;52468;40.116;18.296;2023-04-24T04:01:10;15.70;84.70
51811;DHT22;52468;40.116;18.296;2023-04-24T04:03:59;15.70;84.60
51811;DHT22;52468;40.116;18.296;2023-04-24T04:06:29;15.70;84.70
51811;DHT22;52468;40.116;18.296;2023-04-24T04:08:59;15.80;84.90
51811;DHT22;52468;40.116;18.296;2023-04-24T04:11:27;15.80;85.00
51811;DHT22;52468;40.116;18.296;2023-04-24T04:13:55;15.90;84.80
51811;DHT22;52468;40.116;18.296;2023-04-24T04:16:24;16.00;84.90
51811;DHT22;52468;40.116;18.296;2023-04-24T04:18:58;16.00;85.10
51811;DHT22;52468;40.116;18.296;2023-04-24T04:21:26;16.10;85.20
51811;DHT22;52468;40.116;18.296;2023-04-24T04:24:02;16.20;85.20
51811;DHT22;52468;40.116;18.296;2023-04-24T04:26:37;16.30;85.00
51811;DHT22;52468;40.116;18.296;2023-04-24T04:29:08;16.50;85.00
51811;DHT22;52468;40.116;18.296;2023-04-24T04:31:40;16.70;84.90
51811;DHT22;52468;40.116;18.296;2023-04-24T04:34:12;16.80;84.60
51811;DHT22;52468;40.116;18.296;2023-04-24T04:36:42;16.90;84.40
51811;DHT22;52468;40.116;18.296;2023-04-24T04:39:45;17.00;84.30
51811;DHT22;52468;40.116;18.296;2023-04-24T04:42:20;17.10;84.40
51811;DHT22;52468;40.116;18.296;2023-04-24T04:44:47;17.30;84.50
51811;DHT22;52468;40.116;18.296;2023-04-24T04:47:21;17.60;84.50
51811;DHT22;52468;40.116;18.296;2023-04-24T04:49:54;17.80;84.10
51811;DHT22;52468;40.116;18.296;2023-04-24T04:52:26;18.00;83.30
51811;DHT22;52468;40.116;18.296;2023-04-24T04:55:14;18.10;83.10
51811;DHT22;52468;40.116;18.296;2023-04-24T04:58:00;18.10;82.40
51811;DHT22;52468;40.116;18.296;2023-04-24T05:00:29;18.10;82.20
51811;DHT22;52468;40.116;18.296;2023-04-24T05:03:07;18.00;82.10
51811;DHT22;52468;40.116;18.296;2023-04-24T05:05:46;17.80;82.20
51811;DHT22;52468;40.116;18.296;2023-04-24T05:08:16;17.60;82.50
51811;DHT22;52468;40.116;18.296;2023-04-24T05:10:50;17.60;82.70
51811;DHT22;52468;40.116;18.296;2023-04-24T05:13:18;17.70;82.60
51811;DHT22;52468;40.116;18.296;2023-04-24T05:15:50;17.60;82.40
51811;DHT22;52468;40.116;18.296;2023-04-24T05:18:17;17.70;82.30
51811;DHT22;52468;40.116;18.296;2023-04-24T05:20:46;17.70;82.50
51811;DHT22;52468;40.116;18.296;2023-04-24T05:23:14;17.90;81.90
51811;DHT22;52468;40.116;18.296;2023-04-24T05:25:44;18.00;81.70
51811;DHT22;52468;40.116;18.296;2023-04-24T05:28:12;18.10;82.00
51811;DHT22;52468;40.116;18.296;2023-04-24T05:30:40;18.40;82.50
51811;DHT22;52468;40.116;18.296;2023-04-24T05:33:09;18.70;82.00
51811;DHT22;52468;40.116;18.296;2023-04-24T05:35:37;19.00;81.00
51811;DHT22;52468;40.116;18.296;2023-04-24T05:38:05;19.30;81.10
51811;DHT22;52468;40.116;18.296;2023-04-24T05:40:33;19.60;80.40
51811;DHT22;52468;40.116;18.296;2023-04-24T05:43:01;19.80;78.80
51811;DHT22;52468;40.116;18.296;2023-04-24T05:45:29;20.10;78.30
51811;DHT22;52468;40.116;18.296;2023-04-24T05:47:56;20.30;77.50
51811;DHT22;52468;40.116;18.296;2023-04-24T05:50:24;20.30;76.40
51811;DHT22;52468;40.116;18.296;2023-04-24T05:52:52;20.30;76.90
51811;DHT22;52468;40.116;18.296;2023-04-24T05:55:29;20.20;74.70
51811;DHT22;52468;40.116;18.296;2023-04-24T05:57:57;20.20;75.00
51811;DHT22;52468;40.116;18.296;2023-04-24T06:00:26;20.10;74.60
51811;DHT22;52468;40.116;18.296;2023-04-24T06:03:01;20.10;74.20
51811;DHT22;52468;40.116;18.296;2023-04-24T06:05:31;19.90;73.60
51811;DHT22;52468;40.116;18.296;2023-04-24T06:07:59;19.80;74.00
51811;DHT22;52468;40.116;18.296;2023-04-24T06:10:32;19.70;74.10
51811;DHT22;52468;40.116;18.296;2023-04-24T06:13:01;19.90;73.70
51811;DHT22;52468;40.116;18.296;2023-04-24T06:15:30;20.10;73.40
51811;DHT22;52468;40.116;18.296;2023-04-24T06:18:07;20.20;71.90
51811;DHT22;52468;40.116;18.296;2023-04-24T06:20:36;20.40;71.70
51811;DHT22;52468;40.116;18.296;2023-04-24T06:23:04;20.50;70.50
51811;DHT22;52468;40.116;18.296;2023-04-24T06:25:33;20.70;70.00
51811;DHT22;52468;40.116;18.296;2023-04-24T06:28:01;20.80;68.80
51811;DHT22;52468;40.116;18.296;2023-04-24T06:30:31;21.00;68.20
51811;DHT22;52468;40.116;18.296;2023-04-24T06:32:59;21.00;67.40
51811;DHT22;52468;40.116;18.296;2023-04-24T06:35:29;21.10;66.90
51811;DHT22;52468;40.116;18.296;2023-04-24T06:37:57;21.40;66.20
51811;DHT22;52468;40.116;18.296;2023-04-24T06:40:25;21.40;65.50
51811;DHT22;52468;40.116;18.296;2023-04-24T06:42:53;21.50;65.40
51811;DHT22;52468;40.116;18.296;2023-04-24T06:45:21;21.50;64.90
51811;DHT22;52468;40.116;18.296;2023-04-24T06:47:49;21.60;63.30
51811;DHT22;52468;40.116;18.296;2023-04-24T06:50:17;21.60;63.10
51811;DHT22;52468;40.116;18.296;2023-04-24T06:52:45;21.60;62.80
51811;DHT22;52468;40.116;18.296;2023-04-24T06:55:13;21.60;62.80
51811;DHT22;52468;40.116;18.296;2023-04-24T06:57:43;21.70;62.60
51811;DHT22;52468;40.116;18.296;2023-04-24T07:00:12;21.80;62.60
51811;DHT22;52468;40.116;18.296;2023-04-24T07:02:40;21.90;62.60
51811;DHT22;52468;40.116;18.296;2023-04-24T07:05:08;22.00;62.70
51811;DHT22;52468;40.116;18.296;2023-04-24T07:07:36;22.00;62.00
51811;DHT22;52468;40.116;18.296;2023-04-24T07:10:05;22.10;62.20
51811;DHT22;52468;40.116;18.296;2023-04-24T07:12:33;22.10;61.50
51811;DHT22;52468;40.116;18.296;2023-04-24T07:15:01;22.20;61.00
51811;DHT22;52468;40.116;18.296;2023-04-24T07:17:30;22.00;60.50
51811;DHT22;52468;40.116;18.296;2023-04-24T07:19:58;21.90;61.40
51811;DHT22;52468;40.116;18.296;2023-04-24T07:22:26;21.90;61.60
51811;DHT22;52468;40.116;18.296;2023-04-24T07:24:54;22.00;61.50
51811;DHT22;52468;40.116;18.296;2023-04-24T07:27:22;22.10;61.30
51811;DHT22;52468;40.116;18.296;2023-04-24T07:29:50;22.20;60.90
51811;DHT22;52468;40.116;18.296;2023-04-24T07:32:18;22.20;60.90
51811;DHT22;52468;40.116;18.296;2023-04-24T07:34:46;22.40;59.60
51811;DHT22;52468;40.116;18.296;2023-04-24T07:37:13;22.40;58.90
51811;DHT22;52468;40.116;18.296;2023-04-24T07:39:41;22.30;58.80
51811;DHT22;52468;40.116;18.296;2023-04-24T07:42:10;22.30;58.90
51811;DHT22;52468;40.116;18.296;2023-04-24T07:44:37;22.50;58.90
51811;DHT22;52468;40.116;18.296;2023-04-24T07:47:05;22.60;58.40
51811;DHT22;52468;40.116;18.296;2023-04-24T07:49:33;22.60;58.40
51811;DHT22;52468;40.116;18.296;2023-04-24T07:52:02;22.70;58.60
51811;DHT22;52468;40.116;18.296;2023-04-24T07:54:30;22.60;58.70
51811;DHT22;52468;40.116;18.296;2023-04-24T07:56:58;22.60;58.90
51811;DHT22;52468;40.116;18.296;2023-04-24T07:59:26;22.60;59.10
51811;DHT22;52468;40.116;18.296;2023-04-24T08:01:53;22.80;58.60
51811;DHT22;52468;40.116;18.296;2023-04-24T08:04:21;22.90;58.80
51811;DHT22;52468;40.116;18.296;2023-04-24T08:06:49;23.10;59.10
51811;DHT22;52468;40.116;18.296;2023-04-24T08:09:17;23.30;58.40
51811;DHT22;52468;40.116;18.296;2023-04-24T08:11:45;23.50;56.80
51811;DHT22;52468;40.116;18.296;2023-04-24T08:14:13;23.50;56.10
51811;DHT22;52468;40.116;18.296;2023-04-24T08:16:42;23.50;56.30
51811;DHT22;52468;40.116;18.296;2023-04-24T08:19:10;23.50;55.90
51811;DHT22;52468;40.116;18.296;2023-04-24T08:21:38;23.60;56.00
51811;DHT22;52468;40.116;18.296;2023-04-24T08:24:06;23.80;55.50
51811;DHT22;52468;40.116;18.296;2023-04-24T08:26:35;24.10;55.10
51811;DHT22;52468;40.116;18.296;2023-04-24T08:29:03;24.40;53.80
51811;DHT22;52468;40.116;18.296;2023-04-24T08:31:31;24.60;53.70
51811;DHT22;52468;40.116;18.296;2023-04-24T08:33:59;24.90;52.60
51811;DHT22;52468;40.116;18.296;2023-04-24T08:36:27;25.00;52.10
51811;DHT22;52468;40.116;18.296;2023-04-24T08:39:02;25.00;52.60
51811;DHT22;52468;40.116;18.296;2023-04-24T08:41:30;25.30;51.50
51811;DHT22;52468;40.116;18.296;2023-04-24T08:43:59;25.40;51.30
51811;DHT22;52468;40.116;18.296;2023-04-24T08:46:27;25.50;51.20
51811;DHT22;52468;40.116;18.296;2023-04-24T08:48:56;25.50;51.20
51811;DHT22;52468;40.116;18.296;2023-04-24T08:51:26;25.40;51.80
51811;DHT22;52468;40.116;18.296;2023-04-24T08:53:55;25.40;50.10
51811;DHT22;52468;40.116;18.296;2023-04-24T08:56:23;25.10;49.10
51811;DHT22;52468;40.116;18.296;2023-04-24T08:58:53;25.10;50.10
51811;DHT22;52468;40.116;18.296;2023-04-24T09:01:22;25.10;50.30
51811;DHT22;52468;40.116;18.296;2023-04-24T09:03:51;25.10;50.20
51811;DHT22;52468;40.116;18.296;2023-04-24T09:06:21;25.60;48.90
51811;DHT22;52468;40.116;18.296;2023-04-24T09:08:52;26.00;48.10
51811;DHT22;52468;40.116;18.296;2023-04-24T09:11:22;26.50;46.80
51811;DHT22;52468;40.116;18.296;2023-04-24T09:13:53;26.70;45.80
51811;DHT22;52468;40.116;18.296;2023-04-24T09:16:21;26.50;46.10
51811;DHT22;52468;40.116;18.296;2023-04-24T09:18:50;26.50;46.30
51811;DHT22;52468;40.116;18.296;2023-04-24T09:21:21;26.50;45.20
51811;DHT22;52468;40.116;18.296;2023-04-24T09:24:03;26.30;45.20
51811;DHT22;52468;40.116;18.296;2023-04-24T09:26:32;26.20;45.30
51811;DHT22;52468;40.116;18.296;2023-04-24T09:29:00;26.20;44.90
51811;DHT22;52468;40.116;18.296;2023-04-24T09:31:29;26.20;45.20
51811;DHT22;52468;40.116;18.296;2023-04-24T09:34:02;26.10;45.50
51811;DHT22;52468;40.116;18.296;2023-04-24T09:36:35;26.20;45.90
51811;DHT22;52468;40.116;18.296;2023-04-24T09:39:09;26.40;45.80
51811;DHT22;52468;40.116;18.296;2023-04-24T09:44:19;26.90;44.90
51811;DHT22;52468;40.116;18.296;2023-04-24T09:46:55;26.90;44.40
51811;DHT22;52468;40.116;18.296;2023-04-24T09:49:28;26.50;45.20
51811;DHT22;52468;40.116;18.296;2023-04-24T09:52:06;26.40;45.80
51811;DHT22;52468;40.116;18.296;2023-04-24T09:54:35;26.30;45.70
51811;DHT22;52468;40.116;18.296;2023-04-24T09:57:04;26.20;45.80
51811;DHT22;52468;40.116;18.296;2023-04-24T09:59:32;26.30;45.80
51811;DHT22;52468;40.116;18.296;2023-04-24T10:02:01;26.50;45.20
51811;DHT22;52468;40.116;18.296;2023-04-24T10:04:29;26.40;45.30
51811;DHT22;52468;40.116;18.296;2023-04-24T10:06:57;26.30;46.30
51811;DHT22;52468;40.116;18.296;2023-04-24T10:09:26;26.70;45.70
51811;DHT22;52468;40.116;18.296;2023-04-24T10:11:54;26.90;45.90
51811;DHT22;52468;40.116;18.296;2023-04-24T10:14:23;26.80;45.60
51811;DHT22;52468;40.116;18.296;2023-04-24T10:16:54;27.00;46.20
51811;DHT22;52468;40.116;18.296;2023-04-24T10:19:26;27.40;45.30
51811;DHT22;52468;40.116;18.296;2023-04-24T10:21:54;27.70;44.40
51811;DHT22;52468;40.116;18.296;2023-04-24T10:24:23;27.70;44.40
51811;DHT22;52468;40.116;18.296;2023-04-24T10:26:50;27.60;44.20
51811;DHT22;52468;40.116;18.296;2023-04-24T10:29:19;27.50;44.40
51811;DHT22;52468;40.116;18.296;2023-04-24T10:31:48;27.60;43.90
51811;DHT22;52468;40.116;18.296;2023-04-24T10:34:19;27.80;43.70
51811;DHT22;52468;40.116;18.296;2023-04-24T10:36:51;28.10;42.60
51811;DHT22;52468;40.116;18.296;2023-04-24T10:39:20;28.20;42.30
51811;DHT22;52468;40.116;18.296;2023-04-24T10:41:49;28.50;42.50
51811;DHT22;52468;40.116;18.296;2023-04-24T10:44:17;28.80;41.80
51811;DHT22;52468;40.116;18.296;2023-04-24T10:46:46;29.10;41.50
51811;DHT22;52468;40.116;18.296;2023-04-24T10:49:28;29.00;40.90
51811;DHT22;52468;40.116;18.296;2023-04-24T10:52:01;28.80;40.40
51811;DHT22;52468;40.116;18.296;2023-04-24T10:54:41;28.50;41.00
51811;DHT22;52468;40.116;18.296;2023-04-24T11:02:37;27.60;42.60
51811;DHT22;52468;40.116;18.296;2023-04-24T11:05:06;27.20;43.60
51811;DHT22;52468;40.116;18.296;2023-04-24T11:10:44;26.00;46.60
51811;DHT22;52468;40.116;18.296;2023-04-24T11:13:16;25.50;47.20
51811;DHT22;52468;40.116;18.296;2023-04-24T11:15:44;25.30;47.80
51811;DHT22;52468;40.116;18.296;2023-04-24T11:18:18;25.30;48.30
51811;DHT22;52468;40.116;18.296;2023-04-24T11:20:46;25.40;48.30
51811;DHT22;52468;40.116;18.296;2023-04-24T11:23:14;25.50;48.60
51811;DHT22;52468;40.116;18.296;2023-04-24T11:25:42;25.70;48.30
51811;DHT22;52468;40.116;18.296;2023-04-24T11:28:14;25.80;48.60
51811;DHT22;52468;40.116;18.296;2023-04-24T11:30:43;26.00;48.00
51811;DHT22;52468;40.116;18.296;2023-04-24T11:33:11;26.40;47.70
51811;DHT22;52468;40.116;18.296;2023-04-24T11:35:47;26.50;47.00
51811;DHT22;52468;40.116;18.296;2023-04-24T11:38:15;26.50;47.20
51811;DHT22;52468;40.116;18.296;2023-04-24T11:40:51;26.50;47.00
51811;DHT22;52468;40.116;18.296;2023-04-24T11:43:19;26.50;47.00
51811;DHT22;52468;40.116;18.296;2023-04-24T11:45:50;26.60;46.80
51811;DHT22;52468;40.116;18.296;2023-04-24T11:48:21;26.90;46.30
51811;DHT22;52468;40.116;18.296;2023-04-24T11:50:49;26.90;46.10
51811;DHT22;52468;40.116;18.296;2023-04-24T11:53:21;26.80;45.80
51811;DHT22;52468;40.116;18.296;2023-04-24T11:55:49;26.80;45.90
51811;DHT22;52468;40.116;18.296;2023-04-24T11:58:21;26.90;45.60
51811;DHT22;52468;40.116;18.296;2023-04-24T12:00:56;27.00;45.70
51811;DHT22;52468;40.116;18.296;2023-04-24T12:03:25;27.00;45.30
51811;DHT22;52468;40.116;18.296;2023-04-24T12:05:53;27.00;45.50
51811;DHT22;52468;40.116;18.296;2023-04-24T12:08:32;27.00;45.70
51811;DHT22;52468;40.116;18.296;2023-04-24T12:11:01;26.90;45.90
51811;DHT22;52468;40.116;18.296;2023-04-24T12:13:29;26.90;46.80
51811;DHT22;52468;40.116;18.296;2023-04-24T12:15:57;27.00;47.20
51811;DHT22;52468;40.116;18.296;2023-04-24T12:18:25;27.50;45.50
51811;DHT22;52468;40.116;18.296;2023-04-24T12:20:53;27.60;45.10
51811;DHT22;52468;40.116;18.296;2023-04-24T12:23:36;27.80;44.80
51811;DHT22;52468;40.116;18.296;2023-04-24T12:26:04;27.60;44.40
51811;DHT22;52468;40.116;18.296;2023-04-24T12:28:36;27.50;44.80
51811;DHT22;52468;40.116;18.296;2023-04-24T12:31:06;27.20;45.00
51811;DHT22;52468;40.116;18.296;2023-04-24T12:33:35;27.00;45.10
51811;DHT22;52468;40.116;18.296;2023-04-24T12:36:03;27.20;45.90
51811;DHT22;52468;40.116;18.296;2023-04-24T12:38:32;28.00;44.40
51811;DHT22;52468;40.116;18.296;2023-04-24T12:41:09;28.30;43.10
51811;DHT22;52468;40.116;18.296;2023-04-24T12:43:37;28.50;42.90
51811;DHT22;52468;40.116;18.296;2023-04-24T12:46:05;28.80;42.60
51811;DHT22;52468;40.116;18.296;2023-04-24T12:48:33;29.20;41.40
51811;DHT22;52468;40.116;18.296;2023-04-24T12:51:01;29.40;40.60
51811;DHT22;52468;40.116;18.296;2023-04-24T12:53:29;29.50;40.30
51811;DHT22;52468;40.116;18.296;2023-04-24T12:55:57;29.40;40.90
51811;DHT22;52468;40.116;18.296;2023-04-24T12:58:25;29.50;40.40
51811;DHT22;52468;40.116;18.296;2023-04-24T13:00:53;29.50;40.60
51811;DHT22;52468;40.116;18.296;2023-04-24T13:03:21;29.40;40.50
51811;DHT22;52468;40.116;18.296;2023-04-24T13:05:49;29.10;41.10
51811;DHT22;52468;40.116;18.296;2023-04-24T13:08:17;28.90;41.40
51811;DHT22;52468;40.116;18.296;2023-04-24T13:10:45;28.90;41.60
51811;DHT22;52468;40.116;18.296;2023-04-24T13:13:13;28.90;41.30
51811;DHT22;52468;40.116;18.296;2023-04-24T13:15:41;29.00;41.30
51811;DHT22;52468;40.116;18.296;2023-04-24T13:18:09;29.30;40.30
51811;DHT22;52468;40.116;18.296;2023-04-24T13:20:37;29.60;39.40
51811;DHT22;52468;40.116;18.296;2023-04-24T13:23:05;30.00;38.60
51811;DHT22;52468;40.116;18.296;2023-04-24T13:25:35;30.20;38.60
51811;DHT22;52468;40.116;18.296;2023-04-24T13:28:03;30.10;38.80
51811;DHT22;52468;40.116;18.296;2023-04-24T13:30:32;29.60;39.40
51811;DHT22;52468;40.116;18.296;2023-04-24T13:33:00;29.00;40.40
51811;DHT22;52468;40.116;18.296;2023-04-24T13:35:27;28.20;41.20
51811;DHT22;52468;40.116;18.296;2023-04-24T13:37:55;27.60;41.60
51811;DHT22;52468;40.116;18.296;2023-04-24T13:40:23;27.00;43.00
51811;DHT22;52468;40.116;18.296;2023-04-24T13:42:51;26.30;44.60
51811;DHT22;52468;40.116;18.296;2023-04-24T13:45:19;26.10;45.40
51811;DHT22;52468;40.116;18.296;2023-04-24T13:47:51;26.00;45.50
51811;DHT22;52468;40.116;18.296;2023-04-24T13:50:20;26.00;45.60
51811;DHT22;52468;40.116;18.296;2023-04-24T13:52:48;26.10;45.90
51811;DHT22;52468;40.116;18.296;2023-04-24T13:55:15;26.30;45.50
51811;DHT22;52468;40.116;18.296;2023-04-24T13:57:43;26.70;44.60
51811;DHT22;52468;40.116;18.296;2023-04-24T14:00:12;27.20;44.20
51811;DHT22;52468;40.116;18.296;2023-04-24T14:02:40;27.70;42.70
51811;DHT22;52468;40.116;18.296;2023-04-24T14:05:08;28.50;40.80
51811;DHT22;52468;40.116;18.296;2023-04-24T14:07:38;29.30;39.10
51811;DHT22;52468;40.116;18.296;2023-04-24T14:10:06;29.60;38.70
51811;DHT22;52468;40.116;18.296;2023-04-24T14:12:34;29.90;38.40
51811;DHT22;52468;40.116;18.296;2023-04-24T14:15:03;29.90;38.30
51811;DHT22;52468;40.116;18.296;2023-04-24T14:17:31;30.50;37.70
51811;DHT22;52468;40.116;18.296;2023-04-24T14:24:57;36.50;28.10
51811;DHT22;52468;40.116;18.296;2023-04-24T14:27:26;36.70;27.80
51811;DHT22;52468;40.116;18.296;2023-04-24T14:29:54;35.20;28.10
51811;DHT22;52468;40.116;18.296;2023-04-24T14:32:22;33.20;30.60
51811;DHT22;52468;40.116;18.296;2023-04-24T14:34:50;31.60;33.20
51811;DHT22;52468;40.116;18.296;2023-04-24T14:37:18;30.50;35.20
51811;DHT22;52468;40.116;18.296;2023-04-24T14:39:45;29.20;36.40
51811;DHT22;52468;40.116;18.296;2023-04-24T14:42:16;28.60;37.60
51811;DHT22;52468;40.116;18.296;2023-04-24T14:44:47;28.20;38.50
51811;DHT22;52468;40.116;18.296;2023-04-24T14:47:15;28.30;38.90
51811;DHT22;52468;40.116;18.296;2023-04-24T14:49:45;28.10;39.00
51811;DHT22;52468;40.116;18.296;2023-04-24T14:52:12;28.00;39.50
51811;DHT22;52468;40.116;18.296;2023-04-24T14:54:40;28.10;40.10
51811;DHT22;52468;40.116;18.296;2023-04-24T14:57:08;29.10;38.80
51811;DHT22;52468;40.116;18.296;2023-04-24T14:59:36;30.20;36.90
51811;DHT22;52468;40.116;18.296;2023-04-24T15:02:05;30.50;35.80
51811;DHT22;52468;40.116;18.296;2023-04-24T15:04:41;29.80;37.10
51811;DHT22;52468;40.116;18.296;2023-04-24T15:07:09;29.10;38.40
51811;DHT22;52468;40.116;18.296;2023-04-24T15:09:37;28.80;39.00
51811;DHT22;52468;40.116;18.296;2023-04-24T15:12:05;28.30;40.10
51811;DHT22;52468;40.116;18.296;2023-04-24T15:14:33;27.50;41.40
51811;DHT22;52468;40.116;18.296;2023-04-24T15:17:01;27.00;43.00
51811;DHT22;52468;40.116;18.296;2023-04-24T15:19:28;26.40;44.30
51811;DHT22;52468;40.116;18.296;2023-04-24T15:21:56;26.00;45.40
51811;DHT22;52468;40.116;18.296;2023-04-24T15:24:24;25.70;46.20
51811;DHT22;52468;40.116;18.296;2023-04-24T15:26:53;26.10;46.10
51811;DHT22;52468;40.116;18.296;2023-04-24T15:29:21;27.20;44.20
51811;DHT22;52468;40.116;18.296;2023-04-24T15:31:49;28.50;41.40
51811;DHT22;52468;40.116;18.296;2023-04-24T15:34:17;28.60;41.60
51811;DHT22;52468;40.116;18.296;2023-04-24T15:36:45;28.70;41.90
51811;DHT22;52468;40.116;18.296;2023-04-24T15:39:13;28.50;42.00
51811;DHT22;52468;40.116;18.296;2023-04-24T15:41:41;28.00;42.50
51811;DHT22;52468;40.116;18.296;2023-04-24T15:44:08;27.50;43.40